createdAt,value
2023-07-09T08:54:00.685Z,3.03
2023-07-09T08:56:32.903Z,3.08
2023-07-09T08:59:03.006Z,3.50
2023-07-09T09:01:38.524Z,3.00
2023-07-09T09:04:11.923Z,2.75
2023-07-09T09:06:42.355Z,3.22
2023-07-09T09:09:12.353Z,3.65
2023-07-09T09:12:10.238Z,3.08
2023-07-09T09:14:41.834Z,3.17
2023-07-09T09:17:17.779Z,3.80
2023-07-09T09:22:22.187Z,3.22
2023-07-09T09:24:56.193Z,3.10
2023-07-09T09:27:22.631Z,3.67
2023-07-09T09:29:49.066Z,3.30
2023-07-09T09:32:30.691Z,3.40
2023-07-09T09:34:57.891Z,2.97
2023-07-09T09:37:28.145Z,3.85
2023-07-09T09:40:11.338Z,3.72
2023-07-09T09:42:39.989Z,3.53
2023-07-09T09:45:14.639Z,3.15
2023-07-09T09:47:41.616Z,3.60
2023-07-09T09:50:14.321Z,3.50
2023-07-09T09:52:40.902Z,3.20
2023-07-09T09:55:17.018Z,3.28
2023-07-09T09:57:49.977Z,3.20
2023-07-09T10:00:18.756Z,2.92
2023-07-09T10:02:46.903Z,3.10
2023-07-09T10:05:18.509Z,3.63
2023-07-09T10:08:09.101Z,3.55
2023-07-09T10:10:36.001Z,3.88
2023-07-09T10:13:29.385Z,3.45
2023-07-09T10:16:11.255Z,3.65
2023-07-09T10:21:27.381Z,3.15
2023-07-09T10:24:25.059Z,3.28
2023-07-09T10:27:15.321Z,3.22
2023-07-09T10:30:16.046Z,3.30
2023-07-09T10:33:09.504Z,4.90
2023-07-09T10:35:53.932Z,3.97
2023-07-09T10:38:35.738Z,3.40
2023-07-09T10:43:57.582Z,3.67
2023-07-09T10:46:27.901Z,3.03
2023-07-09T10:48:57.562Z,3.17
2023-07-09T10:51:29.519Z,2.90
2023-07-09T10:54:05.370Z,3.38
2023-07-09T10:56:36.171Z,3.45
2023-07-09T10:59:18.802Z,3.17
2023-07-09T11:01:50.408Z,3.60
2023-07-09T11:04:22.872Z,3.15
2023-07-09T11:06:53.362Z,3.50
2023-07-09T11:09:32.544Z,3.25
2023-07-09T11:12:05.882Z,3.08
2023-07-09T11:14:42.365Z,3.20
2023-07-09T11:17:15.431Z,3.85
2023-07-09T11:19:46.612Z,3.45
2023-07-09T11:22:16.265Z,3.65
2023-07-09T11:24:54.273Z,3.30
2023-07-09T11:27:27.542Z,2.92
2023-07-09T11:30:22.511Z,2.67
2023-07-09T11:32:54.697Z,3.50
2023-07-09T11:35:26.720Z,2.95
2023-07-09T11:37:54.511Z,2.90
2023-07-09T11:40:22.324Z,3.47
2023-07-09T11:43:00.130Z,3.33
2023-07-09T11:45:32.979Z,3.08
2023-07-09T11:48:18.802Z,3.17
2023-07-09T11:50:49.135Z,3.45
2023-07-09T11:53:24.827Z,3.08
2023-07-09T11:55:51.338Z,2.90
2023-07-09T11:58:19.792Z,3.30
2023-07-09T12:00:56.333Z,3.70
2023-07-09T12:03:35.525Z,3.13
2023-07-09T12:06:05.708Z,3.03
2023-07-09T12:08:39.677Z,3.13
2023-07-09T12:11:06.800Z,2.85
2023-07-09T12:13:40.666Z,3.42
2023-07-09T12:16:28.261Z,3.67
2023-07-09T12:18:55.127Z,3.60
2023-07-09T12:21:23.727Z,3.17
2023-07-09T12:23:50.499Z,3.30
2023-07-09T12:26:18.996Z,3.10
2023-07-09T12:28:58.152Z,3.28
2023-07-09T12:31:31.451Z,3.50
2023-07-09T12:34:00.076Z,3.22
2023-07-09T12:36:28.340Z,2.97
2023-07-09T12:39:00.704Z,3.40
2023-07-09T12:41:33.725Z,3.15
2023-07-09T12:44:01.033Z,3.53
2023-07-09T12:46:28.651Z,4.45
2023-07-09T12:48:55.998Z,3.40
2023-07-09T12:51:25.195Z,4.03
2023-07-09T12:54:24.849Z,3.33
2023-07-09T12:56:55.918Z,3.22
2023-07-09T12:59:28.781Z,3.60
2023-07-09T13:02:08.661Z,3.40
2023-07-09T13:04:39.116Z,3.78
2023-07-09T13:07:24.305Z,3.22
2023-07-09T13:09:55.611Z,3.47
2023-07-09T13:12:30.239Z,2.90
2023-07-09T13:14:59.425Z,3.42
2023-07-09T13:17:33.898Z,2.95
2023-07-09T13:20:00.723Z,3.35
2023-07-09T13:22:29.410Z,3.33
2023-07-09T13:24:55.920Z,3.30
2023-07-09T13:27:22.545Z,3.35
2023-07-09T13:29:49.124Z,3.70
2023-07-09T13:32:17.261Z,3.85
2023-07-09T13:34:45.663Z,3.30
2023-07-09T13:37:16.211Z,3.55
2023-07-09T13:39:46.392Z,3.88
2023-07-09T13:42:15.542Z,3.47
2023-07-09T13:44:44.003Z,3.40
2023-07-09T13:47:16.353Z,3.63
2023-07-09T13:49:43.981Z,3.50
2023-07-09T13:52:25.462Z,3.83
2023-07-09T13:54:52.122Z,2.78
2023-07-09T13:57:21.653Z,2.90
2023-07-09T14:02:23.393Z,3.63
2023-07-09T14:04:53.457Z,3.35
2023-07-09T14:07:29.914Z,2.75
2023-07-09T14:09:57.141Z,3.28
2023-07-09T14:12:23.998Z,3.97
2023-07-09T14:14:53.374Z,3.10
2023-07-09T14:17:20.225Z,2.80
2023-07-09T14:19:46.944Z,3.38
2023-07-09T14:22:24.370Z,3.78
2023-07-09T14:24:51.093Z,3.25
2023-07-09T14:27:18.746Z,2.90
2023-07-09T14:29:45.272Z,3.03
2023-07-09T14:32:35.075Z,3.15
2023-07-09T14:35:04.698Z,3.20
2023-07-09T14:37:31.187Z,3.17
2023-07-09T14:39:58.827Z,2.80
2023-07-09T14:42:25.905Z,2.92
2023-07-09T14:44:52.607Z,3.40
2023-07-09T14:47:22.162Z,3.30
2023-07-09T14:49:49.196Z,3.33
2023-07-09T14:52:18.893Z,2.60
2023-07-09T14:54:46.425Z,2.95
2023-07-09T14:57:20.755Z,3.72
2023-07-09T14:59:48.684Z,2.92
2023-07-09T15:02:23.643Z,3.05
2023-07-09T15:04:50.720Z,3.00
2023-07-09T15:07:18.048Z,2.80
2023-07-09T15:09:46.414Z,2.70
2023-07-09T15:12:19.661Z,2.50
2023-07-09T15:14:46.469Z,2.60
2023-07-09T15:17:13.380Z,3.47
2023-07-09T15:19:40.343Z,2.25
2023-07-09T15:22:19.185Z,2.75
2023-07-09T15:24:45.985Z,2.60
2023-07-09T15:27:12.978Z,3.03
2023-07-09T15:29:39.418Z,2.40
2023-07-09T15:32:06.621Z,2.92
2023-07-09T15:34:33.156Z,2.80
2023-07-09T15:36:59.673Z,3.30
2023-07-09T15:39:27.422Z,2.97
2023-07-09T15:41:54.440Z,3.17
2023-07-09T15:44:24.570Z,3.58
2023-07-09T15:46:57.059Z,3.47
2023-07-09T15:49:24.689Z,3.50
2023-07-09T15:51:51.226Z,3.70
2023-07-09T15:54:22.689Z,4.38
2023-07-09T15:56:50.995Z,3.67
2023-07-09T15:59:37.712Z,3.40
2023-07-09T16:02:12.316Z,3.38
2023-07-09T16:04:39.586Z,3.35
2023-07-09T16:07:06.649Z,3.42
2023-07-09T16:09:33.160Z,3.15
2023-07-09T16:11:59.623Z,3.17
2023-07-09T16:14:31.567Z,3.90
2023-07-09T16:17:00.866Z,3.60
2023-07-09T16:19:29.755Z,3.40
2023-07-09T16:22:02.920Z,3.80
2023-07-09T16:24:32.066Z,4.13
2023-07-09T16:27:03.333Z,3.85
2023-07-09T16:29:33.040Z,4.10
2023-07-09T16:32:00.861Z,4.72
2023-07-09T16:34:29.976Z,4.70
2023-07-09T16:36:57.546Z,4.85
2023-07-09T16:39:28.762Z,4.72
2023-07-09T16:41:56.579Z,4.93
2023-07-09T16:44:23.805Z,6.28
2023-07-09T16:46:51.546Z,6.10
2023-07-09T16:49:29.503Z,5.97
2023-07-09T16:51:59.808Z,5.60
2023-07-09T16:54:26.558Z,6.88
2023-07-09T16:56:54.516Z,6.00
2023-07-09T16:59:21.058Z,5.72
2023-07-09T17:01:47.875Z,5.63
2023-07-09T17:04:27.601Z,5.70
2023-07-09T17:06:54.270Z,5.15
2023-07-09T17:09:21.701Z,5.18
2023-07-09T17:11:59.920Z,5.15
2023-07-09T17:14:27.093Z,6.70
2023-07-09T17:16:53.906Z,5.78
2023-07-09T17:19:20.390Z,6.82
2023-07-09T17:21:48.852Z,5.93
2023-07-09T17:24:22.340Z,5.07
2023-07-09T17:26:50.158Z,5.05
2023-07-09T17:29:17.225Z,5.50
2023-07-09T17:31:45.585Z,4.68
2023-07-09T17:34:12.837Z,5.80
2023-07-09T17:36:39.513Z,5.93
2023-07-09T17:39:23.245Z,5.85
2023-07-09T17:41:51.154Z,5.97
2023-07-09T17:44:23.629Z,6.05
2023-07-09T17:46:52.654Z,5.43
2023-07-09T17:49:28.592Z,6.20
2023-07-09T17:51:55.360Z,5.22
2023-07-09T17:54:24.637Z,5.28
2023-07-09T17:56:53.614Z,5.30
2023-07-09T17:59:25.988Z,6.13
2023-07-09T18:02:00.615Z,5.20
2023-07-09T18:04:31.072Z,5.82
2023-07-09T18:07:00.004Z,6.25
2023-07-09T18:09:26.484Z,7.03
2023-07-09T18:11:54.764Z,7.20
2023-07-09T18:14:27.891Z,6.22
2023-07-09T18:16:54.902Z,6.57
2023-07-09T18:19:27.369Z,5.40
2023-07-09T18:22:02.599Z,5.25
2023-07-09T18:24:29.087Z,5.50
2023-07-09T18:26:56.487Z,5.47
2023-07-09T18:29:33.443Z,5.18
2023-07-09T18:32:01.297Z,4.97
2023-07-09T18:34:27.758Z,5.28
2023-07-09T18:36:54.491Z,5.07
2023-07-09T18:39:21.074Z,5.18
2023-07-09T18:41:47.547Z,5.35
2023-07-09T18:44:19.678Z,4.70
2023-07-09T18:46:47.872Z,5.10
2023-07-09T18:49:14.894Z,6.13
2023-07-09T18:51:43.445Z,5.70
2023-07-09T18:54:18.027Z,6.53
2023-07-09T18:56:48.953Z,7.00
2023-07-09T18:59:21.808Z,6.90
2023-07-09T19:01:49.864Z,6.57
2023-07-09T19:04:24.670Z,8.32
2023-07-09T19:06:51.178Z,8.05
2023-07-09T19:09:20.650Z,6.90
2023-07-09T19:11:48.783Z,7.32
2023-07-09T19:14:16.746Z,7.30
2023-07-09T19:17:05.751Z,6.75
2023-07-09T19:19:32.225Z,7.97
2023-07-09T19:21:58.774Z,7.55
2023-07-09T19:24:31.377Z,6.97
2023-07-09T19:26:58.396Z,7.38
2023-07-09T19:29:26.661Z,8.25
2023-07-09T19:31:57.459Z,7.90
2023-07-09T19:34:28.390Z,7.32
2023-07-09T19:37:00.497Z,7.25
2023-07-09T19:39:35.513Z,6.85
2023-07-09T19:42:23.896Z,7.22
2023-07-09T19:44:51.035Z,6.65
2023-07-09T19:47:23.815Z,6.88
2023-07-09T19:49:53.267Z,8.20
2023-07-09T19:52:19.888Z,8.15
2023-07-09T19:54:46.353Z,8.43
2023-07-09T19:57:14.200Z,8.32
2023-07-09T19:59:41.111Z,8.50
2023-07-09T20:02:19.897Z,8.38
2023-07-09T20:04:46.817Z,7.05
2023-07-09T20:07:14.235Z,6.68
2023-07-09T20:09:43.008Z,7.13
2023-07-09T20:12:20.333Z,6.90
2023-07-09T20:14:48.176Z,7.70
2023-07-09T20:17:16.248Z,7.50
2023-07-09T20:19:43.654Z,7.35
2023-07-09T20:22:15.547Z,8.57
2023-07-09T20:24:42.545Z,7.68
2023-07-09T20:27:13.007Z,8.43
2023-07-09T20:29:40.099Z,8.32
2023-07-09T20:32:15.321Z,7.65
2023-07-09T20:34:41.810Z,8.02
2023-07-09T20:37:12.395Z,8.35
2023-07-09T20:39:44.273Z,7.75
2023-07-09T20:42:16.238Z,9.15
2023-07-09T20:44:43.790Z,9.40
2023-07-09T20:47:17.011Z,9.30
2023-07-09T20:49:43.993Z,10.27
2023-07-09T20:52:10.623Z,9.70
2023-07-09T20:54:38.127Z,11.15
2023-07-09T20:57:15.420Z,10.95
2023-07-09T20:59:41.965Z,12.15
2023-07-09T21:02:35.004Z,10.73
2023-07-09T21:05:01.622Z,11.23
2023-07-09T21:07:28.088Z,11.10
2023-07-09T21:09:54.659Z,10.57
2023-07-09T21:12:21.133Z,10.18
2023-07-09T21:14:47.631Z,10.52
2023-07-09T21:17:18.256Z,10.40
2023-07-09T21:19:45.356Z,12.38
2023-07-09T21:22:14.926Z,12.45
2023-07-09T21:24:42.810Z,11.05
2023-07-09T21:27:09.354Z,13.13
2023-07-09T21:29:36.620Z,13.35
2023-07-09T21:32:07.497Z,13.80
2023-07-09T21:34:35.493Z,16.27
2023-07-09T21:37:15.612Z,14.93
2023-07-09T21:39:42.421Z,16.63
2023-07-09T21:42:08.969Z,15.85
2023-07-09T21:44:35.569Z,18.13
2023-07-09T21:47:06.411Z,17.13
2023-07-09T21:49:38.177Z,17.83
2023-07-09T21:52:13.162Z,17.42
2023-07-09T21:55:06.485Z,16.23
2023-07-09T21:57:26.092Z,16.13
2023-07-09T21:59:52.583Z,16.95
2023-07-09T22:02:26.953Z,15.48
2023-07-09T22:04:54.877Z,14.02
2023-07-09T22:07:23.783Z,14.05
2023-07-09T22:09:54.693Z,14.48
2023-07-09T22:12:22.432Z,14.50
2023-07-09T22:14:51.373Z,13.95
2023-07-09T22:17:19.629Z,13.82
2023-07-09T22:19:46.358Z,12.05
2023-07-09T22:22:13.340Z,12.57
2023-07-09T22:24:40.891Z,13.52
2023-07-09T22:27:09.795Z,12.73
2023-07-09T22:29:36.285Z,14.10
2023-07-09T22:32:03.070Z,13.38
2023-07-09T22:34:29.601Z,13.75
2023-07-09T22:36:56.111Z,13.15
2023-07-09T22:39:22.968Z,14.60
2023-07-09T22:41:49.792Z,14.07
2023-07-09T22:44:16.334Z,15.65
2023-07-09T22:46:44.702Z,15.20
2023-07-09T22:49:16.684Z,15.00
2023-07-09T22:51:43.566Z,15.57
2023-07-09T22:54:11.660Z,15.82
2023-07-09T22:56:38.192Z,16.98
2023-07-09T22:59:04.723Z,17.88
2023-07-09T23:01:32.287Z,17.38
2023-07-09T23:04:01.499Z,18.88
2023-07-09T23:06:28.548Z,20.40
2023-07-09T23:08:56.547Z,20.23
2023-07-09T23:11:28.895Z,21.58
2023-07-09T23:13:57.300Z,20.55
2023-07-09T23:16:26.767Z,22.25
2023-07-09T23:18:53.684Z,22.15
2023-07-09T23:21:24.650Z,22.88
2023-07-09T23:23:54.182Z,22.20
2023-07-09T23:26:20.673Z,22.33
2023-07-09T23:28:47.139Z,23.83
2023-07-09T23:31:24.573Z,21.67
2023-07-09T23:33:51.529Z,22.02
2023-07-09T23:36:18.263Z,22.77
2023-07-09T23:38:44.744Z,22.17
2023-07-09T23:41:24.010Z,22.52
2023-07-09T23:43:52.028Z,23.60
2023-07-09T23:46:18.564Z,23.50
2023-07-09T23:48:51.298Z,22.77
2023-07-09T23:51:23.839Z,24.48
2023-07-09T23:53:52.191Z,27.55
2023-07-09T23:56:23.387Z,22.98
2023-07-09T23:58:50.429Z,24.92
